Time,TemperatureF,DewpointF,PressureIn,WindDirection,WindDirectionDegrees,WindSpeedMPH,WindSpeedGustMPH,Humidity,HourlyPrecipIn,Conditions,Clouds,dailyrainin,SoftwareType,DateUTC
2013-04-08 00:10:00,78.1,72.0,29.97,ESE,122,1.0,2.0,82,0.00,,,0.00,weatherlink.com 1.10,2013-04-08 04:10:00,
2013-04-08 00:25:00,78.1,73.0,29.97,SE,127,0.0,2.0,83,0.00,,,0.00,weatherlink.com 1.10,2013-04-08 04:25:00,
2013-04-08 00:43:00,77.8,72.0,29.96,ESE,120,0.0,1.0,83,0.00,,,0.00,weatherlink.com 1.10,2013-04-08 04:43:00,
2013-04-08 00:55:00,78.0,72.0,29.96,ESE,122,1.0,1.0,82,0.00,,,0.00,weatherlink.com 1.10,2013-04-08 04:55:00,
2013-04-08 01:10:00,78.0,73.0,29.95,SE,129,1.0,2.0,83,0.00,,,0.00,weatherlink.com 1.10,2013-04-08 05:10:00,
2013-04-08 01:25:00,77.8,72.0,29.94,SE,131,0.0,1.0,83,0.00,,,0.00,weatherlink.com 1.10,2013-04-08 05:25:00,
2013-04-08 01:40:00,77.7,72.0,29.93,SE,131,0.0,0.0,83,0.00,,,0.00,weatherlink.com 1.10,2013-04-08 05:40:00,
2013-04-08 01:55:00,77.6,72.0,29.93,SE,131,0.0,1.0,83,0.00,,,0.00,weatherlink.com 1.10,2013-04-08 05:55:00,
2013-04-08 02:10:00,77.5,72.0,29.92,WSW,242,0.0,1.0,83,0.00,,,0.00,weatherlink.com 1.10,2013-04-08 06:10:00,
2013-04-08 02:25:00,77.7,72.0,29.92,WSW,242,0.0,1.0,83,0.00,,,0.00,weatherlink.com 1.10,2013-04-08 06:25:00,
2013-04-08 02:40:00,77.7,73.0,29.91,ENE,58,0.0,2.0,85,0.00,,,0.00,weatherlink.com 1.10,2013-04-08 06:40:00,
2013-04-08 02:55:00,77.6,73.0,29.91,WNW,287,1.0,1.0,85,0.00,,,0.00,weatherlink.com 1.10,2013-04-08 06:55:00,
2013-04-08 03:10:00,77.5,73.0,29.91,West,273,0.0,2.0,85,0.00,,,0.00,weatherlink.com 1.10,2013-04-08 07:10:00,
2013-04-08 03:25:00,77.6,73.0,29.91,West,266,0.0,2.0,85,0.00,,,0.00,weatherlink.com 1.10,2013-04-08 07:25:00,
2013-04-08 03:40:00,77.7,73.0,29.90,West,266,0.0,1.0,85,0.00,,,0.00,weatherlink.com 1.10,2013-04-08 07:40:00,
2013-04-08 03:55:00,77.3,73.0,29.90,West,265,0.0,1.0,85,0.00,,,0.00,weatherlink.com 1.10,2013-04-08 07:55:00,
2013-04-08 04:10:00,77.3,73.0,29.90,SSW,207,0.0,1.0,86,0.00,,,0.00,weatherlink.com 1.10,2013-04-08 08:10:00,
2013-04-08 04:25:00,77.3,73.0,29.90,SSE,158,0.0,1.0,85,0.00,,,0.00,weatherlink.com 1.10,2013-04-08 08:25:00,
2013-04-08 04:40:00,77.0,73.0,29.91,SE,135,0.0,2.0,86,0.00,,,0.00,weatherlink.com 1.10,2013-04-08 08:40:00,
2013-04-08 04:55:00,76.7,72.0,29.91,SE,130,0.0,1.0,86,0.00,,,0.00,weatherlink.com 1.10,2013-04-08 08:55:00,
2013-04-08 05:10:00,76.8,72.0,29.91,SE,129,0.0,1.0,86,0.00,,,0.00,weatherlink.com 1.10,2013-04-08 09:10:00,
2013-04-08 05:26:00,77.2,72.0,29.91,ESE,123,0.0,1.0,85,0.00,,,0.00,weatherlink.com 1.10,2013-04-08 09:26:00,
2013-04-08 05:41:00,77.3,73.0,29.92,ESE,115,0.0,2.0,85,0.00,,,0.00,weatherlink.com 1.10,2013-04-08 09:41:00,
2013-04-08 06:10:00,76.7,72.0,29.93,SE,131,2.0,2.0,86,0.00,,,0.00,weatherlink.com 1.10,2013-04-08 10:10:00,
2013-04-08 06:26:00,76.5,73.0,29.94,ESE,122,2.0,3.0,88,0.00,,,0.00,weatherlink.com 1.10,2013-04-08 10:26:00,
2013-04-08 07:10:00,77.0,72.0,29.95,SE,134,0.0,2.0,85,0.00,,,0.00,weatherlink.com 1.10,2013-04-08 11:10:00,
2013-04-08 07:25:00,77.2,73.0,29.96,East,88,7.0,7.0,87,0.01,,,0.01,weatherlink.com 1.10,2013-04-08 11:25:00,
2013-04-08 07:41:00,78.9,74.0,29.96,SE,127,1.0,3.0,86,0.02,,,0.02,weatherlink.com 1.10,2013-04-08 11:41:00,
2013-04-08 08:11:00,80.4,76.0,29.97,ESE,121,3.0,3.0,86,0.02,,,0.02,weatherlink.com 1.10,2013-04-08 12:11:00,
2013-04-08 08:25:00,81.3,75.0,29.97,SSE,160,1.0,6.0,82,0.00,,,0.02,weatherlink.com 1.10,2013-04-08 12:25:00,
2013-04-08 08:40:00,81.5,75.0,29.98,ENE,71,7.0,9.0,80,0.00,,,0.02,weatherlink.com 1.10,2013-04-08 12:40:00,
2013-04-08 08:55:00,82.8,75.0,29.98,East,84,2.0,8.0,76,0.00,,,0.02,weatherlink.com 1.10,2013-04-08 12:55:00,
2013-04-08 09:11:00,83.3,74.0,29.99,NE,56,7.0,11.0,74,0.00,,,0.02,weatherlink.com 1.10,2013-04-08 13:11:00,
2013-04-08 09:26:00,83.7,73.0,30.00,ENE,58,5.0,11.0,71,0.00,,,0.02,weatherlink.com 1.10,2013-04-08 13:26:00,
2013-04-08 09:41:00,84.4,73.0,30.00,ENE,75,4.0,9.0,68,0.00,,,0.02,weatherlink.com 1.10,2013-04-08 13:41:00,
2013-04-08 09:56:00,84.8,72.0,30.00,SE,127,2.0,11.0,65,0.00,,,0.02,weatherlink.com 1.10,2013-04-08 13:56:00,
2013-04-08 10:11:00,85.4,71.0,30.00,ESE,104,3.0,10.0,63,0.00,,,0.02,weatherlink.com 1.10,2013-04-08 14:11:00,
2013-04-08 10:26:00,86.2,71.0,30.00,NNE,27,11.0,12.0,60,0.00,,,0.02,weatherlink.com 1.10,2013-04-08 14:26:00,
2013-04-08 10:41:00,86.7,71.0,29.99,East,85,4.0,13.0,60,0.00,,,0.02,weatherlink.com 1.10,2013-04-08 14:41:00,
2013-04-08 10:57:00,86.8,70.0,29.99,ESE,113,7.0,15.0,58,0.00,,,0.02,weatherlink.com 1.10,2013-04-08 14:57:00,
2013-04-08 11:26:00,87.2,70.0,29.99,East,80,10.0,13.0,56,0.00,,,0.02,weatherlink.com 1.10,2013-04-08 15:26:00,
2013-04-08 11:41:00,87.2,71.0,29.98,NE,52,7.0,14.0,58,0.00,,,0.02,weatherlink.com 1.10,2013-04-08 15:41:00,
2013-04-08 11:56:00,87.8,69.0,29.98,ENE,68,9.0,14.0,54,0.00,,,0.02,weatherlink.com 1.10,2013-04-08 15:56:00,
2013-04-08 12:12:00,88.2,69.0,29.98,ESE,112,4.0,17.0,53,0.00,,,0.02,weatherlink.com 1.10,2013-04-08 16:12:00,
2013-04-08 12:26:00,88.1,67.0,29.97,ENE,78,5.0,15.0,50,0.00,,,0.02,weatherlink.com 1.10,2013-04-08 16:26:00,
2013-04-08 12:56:00,88.7,68.0,29.95,SE,124,6.0,14.0,50,0.00,,,0.02,weatherlink.com 1.10,2013-04-08 16:56:00,
2013-04-08 13:12:00,88.6,68.0,29.95,ENE,76,7.0,12.0,51,0.00,,,0.02,weatherlink.com 1.10,2013-04-08 17:12:00,
2013-04-08 13:27:00,88.2,68.0,29.94,East,84,5.0,12.0,52,0.00,,,0.02,weatherlink.com 1.10,2013-04-08 17:27:00,
2013-04-08 13:42:00,88.1,67.0,29.94,NE,39,10.0,15.0,50,0.00,,,0.02,weatherlink.com 1.10,2013-04-08 17:42:00,
2013-04-08 13:57:00,87.9,72.0,29.93,ESE,115,5.0,12.0,59,0.00,,,0.02,weatherlink.com 1.10,2013-04-08 17:57:00,
2013-04-08 14:11:00,87.9,69.0,29.93,ENE,70,6.0,11.0,54,0.00,,,0.02,weatherlink.com 1.10,2013-04-08 18:11:00,
2013-04-08 14:41:00,86.4,75.0,29.92,ENE,60,8.0,13.0,68,0.00,,,0.02,weatherlink.com 1.10,2013-04-08 18:41:00,
2013-04-08 14:57:00,85.3,75.0,29.92,ENE,68,7.0,17.0,70,0.00,,,0.02,weatherlink.com 1.10,2013-04-08 18:57:00,
2013-04-08 15:12:00,84.5,74.0,29.92,ENE,69,9.0,11.0,71,0.00,,,0.02,weatherlink.com 1.10,2013-04-08 19:12:00,
2013-04-08 15:26:00,84.7,74.0,29.92,East,84,7.0,13.0,71,0.00,,,0.02,weatherlink.com 1.10,2013-04-08 19:26:00,
2013-04-08 15:41:00,84.7,74.0,29.92,East,80,5.0,12.0,71,0.00,,,0.02,weatherlink.com 1.10,2013-04-08 19:41:00,
2013-04-08 15:56:00,84.4,74.0,29.91,NNE,30,5.0,14.0,71,0.00,,,0.02,weatherlink.com 1.10,2013-04-08 19:56:00,
2013-04-08 16:12:00,84.4,74.0,29.91,NE,56,5.0,12.0,72,0.00,,,0.02,weatherlink.com 1.10,2013-04-08 20:12:00,
2013-04-08 16:27:00,84.2,74.0,29.91,East,86,9.0,11.0,72,0.00,,,0.02,weatherlink.com 1.10,2013-04-08 20:27:00,
2013-04-08 16:42:00,84.5,75.0,29.91,NE,41,7.0,13.0,72,0.00,,,0.02,weatherlink.com 1.10,2013-04-08 20:42:00,
2013-04-08 16:56:00,83.5,74.0,29.92,ENE,70,6.0,12.0,74,0.00,,,0.02,weatherlink.com 1.10,2013-04-08 20:56:00,
2013-04-08 17:11:00,82.9,74.0,29.92,East,82,7.0,11.0,74,0.00,,,0.02,weatherlink.com 1.10,2013-04-08 21:11:00,
2013-04-08 17:27:00,82.6,74.0,29.92,NE,56,4.0,15.0,75,0.00,,,0.02,weatherlink.com 1.10,2013-04-08 21:27:00,
2013-04-08 17:42:00,82.5,74.0,29.92,ESE,104,7.0,11.0,76,0.00,,,0.02,weatherlink.com 1.10,2013-04-08 21:42:00,
2013-04-08 17:57:00,82.3,73.0,29.92,East,96,8.0,12.0,74,0.00,,,0.02,weatherlink.com 1.10,2013-04-08 21:57:00,
2013-04-08 18:27:00,81.0,72.0,29.92,ENE,61,8.0,12.0,75,0.00,,,0.02,weatherlink.com 1.10,2013-04-08 22:27:00,
2013-04-08 18:42:00,80.7,73.0,29.93,ESE,102,4.0,9.0,77,0.00,,,0.02,weatherlink.com 1.10,2013-04-08 22:42:00,
2013-04-08 18:56:00,80.4,73.0,29.94,NNE,14,5.0,8.0,77,0.00,,,0.02,weatherlink.com 1.10,2013-04-08 22:56:00,
2013-04-08 19:11:00,80.2,73.0,29.94,NE,46,7.0,10.0,79,0.00,,,0.02,weatherlink.com 1.10,2013-04-08 23:11:00,
2013-04-08 19:27:00,80.3,73.0,29.95,East,94,2.0,7.0,79,0.00,,,0.02,weatherlink.com 1.10,2013-04-08 23:27:00,
2013-04-08 19:57:00,80.0,74.0,29.96,East,80,1.0,9.0,81,0.00,,,0.02,weatherlink.com 1.10,2013-04-08 23:57:00,
2013-04-08 20:12:00,80.2,74.0,29.96,ENE,68,4.0,5.0,81,0.00,,,0.02,weatherlink.com 1.10,2013-04-09 00:12:00,
2013-04-08 20:41:00,80.2,73.0,29.97,NNE,20,5.0,7.0,79,0.00,,,0.02,weatherlink.com 1.10,2013-04-09 00:41:00,
2013-04-08 20:56:00,80.0,73.0,29.97,East,83,6.0,8.0,80,0.00,,,0.02,weatherlink.com 1.10,2013-04-09 00:56:00,
2013-04-08 21:12:00,79.9,74.0,29.98,ENE,61,5.0,7.0,81,0.00,,,0.02,weatherlink.com 1.10,2013-04-09 01:12:00,
2013-04-08 21:27:00,79.8,74.0,29.98,ENE,78,4.0,8.0,82,0.00,,,0.02,weatherlink.com 1.10,2013-04-09 01:27:00,
2013-04-08 21:42:00,79.7,74.0,29.99,ESE,113,3.0,5.0,83,0.00,,,0.02,weatherlink.com 1.10,2013-04-09 01:42:00,
2013-04-08 21:57:00,79.1,74.0,29.99,ENE,71,2.0,6.0,85,0.01,,,0.03,weatherlink.com 1.10,2013-04-09 01:57:00,
2013-04-08 22:11:00,78.6,74.0,29.99,SE,133,0.0,7.0,86,0.01,,,0.03,weatherlink.com 1.10,2013-04-09 02:11:00,
2013-04-08 22:26:00,78.6,75.0,30.00,ESE,103,5.0,6.0,87,0.05,,,0.07,weatherlink.com 1.10,2013-04-09 02:26:00,
2013-04-08 22:42:00,78.2,75.0,30.00,East,90,2.0,3.0,89,0.06,,,0.08,weatherlink.com 1.10,2013-04-09 02:42:00,
2013-04-08 22:57:00,78.0,75.0,29.99,ENE,74,4.0,6.0,89,0.06,,,0.09,weatherlink.com 1.10,2013-04-09 02:57:00,
2013-04-08 23:12:00,77.9,75.0,29.99,SSE,148,0.0,3.0,90,0.08,,,0.11,weatherlink.com 1.10,2013-04-09 03:12:00,
2013-04-08 23:27:00,77.6,75.0,30.00,East,88,1.0,3.0,91,0.03,,,0.11,weatherlink.com 1.10,2013-04-09 03:27:00,
2013-04-08 23:42:00,77.5,74.0,30.00,East,90,1.0,2.0,90,0.03,,,0.11,weatherlink.com 1.10,2013-04-09 03:42:00,
2013-04-08 23:57:00,77.2,75.0,29.99,East,98,3.0,5.0,91,0.07,,,0.16,weatherlink.com 1.10,2013-04-09 03:57:00,